This is the latest recevied weather packets stored in our database for station/object VE6EN. If no packets are shown the sender has not sent any weather packets the latest 10 day(s).
| Time | Temp. | Humidity | Pressure | Rain* | Wind** | Luminosity | Snow |
|---|---|---|---|---|---|---|---|
| 1787770819 | 24.44° C | 41% | 1018.3 hPa | 0 mm | - | - | - |
| 1787769616 | 23.33° C | 46% | 1018.5 hPa | 0 mm | - | - | - |
| 1787769004 | 22.78° C | 49% | 1018.5 hPa | 0 mm | - | - | - |
| 1787768403 | 22.78° C | 49% | 1018.7 hPa | 0 mm | - | - | - |
| 1787767803 | 22.22° C | 54% | 1018.6 hPa | 0 mm | - | - | - |
| 1787767203 | 21.67° C | 53% | 1018.7 hPa | 0 mm | - | - | - |
| 1787766604 | 21.11° C | 56% | 1018.8 hPa | 0 mm | - | - | - |
| 1787766003 | 21.11° C | 57% | 1018.8 hPa | 0 mm | - | - | - |
| 1787764803 | 20° C | 60% | 1018.9 hPa | 0 mm | - | - | - |
| 1787763604 | 18.89° C | 59% | 1019 hPa | 0 mm | - | - | - |
| 1787763012 | 18.33° C | 62% | 1019.1 hPa | 0 mm | - | - | - |
| 1787761806 | 17.22° C | 65% | 1019 hPa | 0 mm | - | - | - |
| 1787761205 | 16.67° C | 65% | 1019 hPa | 0 mm | - | - | - |
| 1787760608 | 16.67° C | 63% | 1019.1 hPa | 0 mm | - | - | - |
| 1787760312 | 16.67° C | 65% | 1019.1 hPa | 0 mm | - | - | - |
| 1787756406 | 12.78° C | 78% | 1019 hPa | 0 mm | - | - | - |
| 1787755804 | 12.22° C | 79% | 1019 hPa | 0 mm | - | - | - |
| 1787754608 | 11.67° C | 80% | 1019 hPa | 0 mm | - | - | - |
| 1787754004 | 11.67° C | 80% | 1019 hPa | 0 mm | - | - | - |
| 1787753404 | 11.67° C | 80% | 1019 hPa | 0 mm | - | - | - |
| 1787752800 | 11.67° C | 79% | 1018.9 hPa | 0 mm | - | - | - |
| 1787751615 | 11.11° C | 80% | 1018.8 hPa | 0 mm | - | - | - |
| 1787751004 | 11.11° C | 81% | 1018.8 hPa | 0 mm | - | - | - |
| 1787750417 | 11.11° C | 82% | 1018.7 hPa | 0 mm | - | - | - |
| 1787749809 | 11.11° C | 83% | 1018.7 hPa | 0 mm | - | - | - |
* Rain latest hour (hover to see other rain measurements)
** Current wind speed in m/s (hover to see current wind gust speed)